Terminal Aerodrome Forecast
Issued by NWS

Home | Current Version | Previous Version | Text Only | Print | Product List | Glossary On
Versions: 1 2 3 4 5 6 7 8 9 10 11 12 13 14 15 16 17
000
FTUS43 KDTX 261120
TAFMBS
TAF
KMBS 261120Z 2612/2712 25009KT P6SM SCT015 SCT040
     FM261500 27016G26KT P6SM BKN050
      TEMPO 2620/2624 6SM -SHRA BKN040
     FM270000 28009KT P6SM -SHRA SCT040 BKN070
     FM270200 28008KT P6SM BKN025
     FM270800 28007KT P6SM SCT040=

USA.gov is the U.S. government's official web portal to all federal, state and local government web resources and services.